Terminal Aerodrome Forecast
Issued by NWS Austin/San Antonio, TX

Home | Current Version | Previous Version | Text Only | Print | Product List | Glossary On
Versions: 1 2 3 4 5 6 7 8 9 10 11 12 13 14 15 16 17 18 19 20 21 22 23 24 25 26 27 28
813
FTUS44 KEWX 300530
TAFSAT
TAF
KSAT 300530Z 3006/0112 VRB03KT P6SM FEW015 SCT030
     FM300700 VRB03KT P6SM BKN015
      TEMPO 3008/3010 VRB15KT 2SM TSRA BKN007CB
     FM301000 32003KT 4SM BR OVC007
     FM301300 01005KT P6SM BKN250
     FM302100 08005KT P6SM SCT250=

USA.gov is the U.S. government's official web portal to all federal, state and local government web resources and services.